sensor_id;sensor_type;location;lat;lon;timestamp;temperature;humidity
13251;DHT22;6692;50.710;7.180;2023-05-10T00:01:07;14.40;99.90
13251;DHT22;6692;50.710;7.180;2023-05-10T00:03:08;14.40;99.90
13251;DHT22;6692;50.710;7.180;2023-05-10T00:05:09;14.40;99.90
13251;DHT22;6692;50.710;7.180;2023-05-10T00:07:10;14.50;99.90
13251;DHT22;6692;50.710;7.180;2023-05-10T00:09:11;14.50;99.90
13251;DHT22;6692;50.710;7.180;2023-05-10T00:11:11;14.50;99.90
13251;DHT22;6692;50.710;7.180;2023-05-10T00:13:13;14.50;99.90
13251;DHT22;6692;50.710;7.180;2023-05-10T00:15:14;14.50;99.90
13251;DHT22;6692;50.710;7.180;2023-05-10T00:17:14;14.50;99.90
13251;DHT22;6692;50.710;7.180;2023-05-10T00:19:16;14.50;99.90
13251;DHT22;6692;50.710;7.180;2023-05-10T00:21:16;14.50;99.90
13251;DHT22;6692;50.710;7.180;2023-05-10T00:23:17;14.60;99.90
13251;DHT22;6692;50.710;7.180;2023-05-10T00:25:18;14.60;99.90
13251;DHT22;6692;50.710;7.180;2023-05-10T00:27:18;14.70;99.90
13251;DHT22;6692;50.710;7.180;2023-05-10T00:29:20;14.70;99.90
13251;DHT22;6692;50.710;7.180;2023-05-10T00:31:20;14.70;99.90
13251;DHT22;6692;50.710;7.180;2023-05-10T00:33:21;14.70;99.90
13251;DHT22;6692;50.710;7.180;2023-05-10T00:35:23;14.70;99.90
13251;DHT22;6692;50.710;7.180;2023-05-10T00:37:23;14.60;99.90
13251;DHT22;6692;50.710;7.180;2023-05-10T00:39:24;14.60;99.90
13251;DHT22;6692;50.710;7.180;2023-05-10T00:41:25;14.60;99.90
13251;DHT22;6692;50.710;7.180;2023-05-10T00:43:26;14.60;99.90
13251;DHT22;6692;50.710;7.180;2023-05-10T00:45:27;14.70;99.90
13251;DHT22;6692;50.710;7.180;2023-05-10T00:47:27;14.60;99.90
13251;DHT22;6692;50.710;7.180;2023-05-10T00:49:28;14.70;99.90
13251;DHT22;6692;50.710;7.180;2023-05-10T00:51:29;14.70;99.90
13251;DHT22;6692;50.710;7.180;2023-05-10T00:53:31;14.60;99.90
13251;DHT22;6692;50.710;7.180;2023-05-10T00:55:31;14.60;99.90
13251;DHT22;6692;50.710;7.180;2023-05-10T00:57:31;14.70;99.90
13251;DHT22;6692;50.710;7.180;2023-05-10T00:59:32;14.70;99.90
13251;DHT22;6692;50.710;7.180;2023-05-10T01:01:33;14.70;99.90
13251;DHT22;6692;50.710;7.180;2023-05-10T01:03:33;14.70;99.90
13251;DHT22;6692;50.710;7.180;2023-05-10T01:05:34;14.60;99.90
13251;DHT22;6692;50.710;7.180;2023-05-10T01:07:35;14.60;99.90
13251;DHT22;6692;50.710;7.180;2023-05-10T01:09:36;14.60;99.90
13251;DHT22;6692;50.710;7.180;2023-05-10T01:11:37;14.60;99.90
13251;DHT22;6692;50.710;7.180;2023-05-10T01:13:38;14.50;99.90
13251;DHT22;6692;50.710;7.180;2023-05-10T01:15:38;14.50;99.90
13251;DHT22;6692;50.710;7.180;2023-05-10T01:17:39;14.50;99.90
13251;DHT22;6692;50.710;7.180;2023-05-10T01:19:40;14.50;99.90
13251;DHT22;6692;50.710;7.180;2023-05-10T01:21:56;14.60;99.90
13251;DHT22;6692;50.710;7.180;2023-05-10T01:24:36;14.60;99.90
13251;DHT22;6692;50.710;7.180;2023-05-10T01:26:39;14.60;99.90
13251;DHT22;6692;50.710;7.180;2023-05-10T01:28:58;14.60;99.90
13251;DHT22;6692;50.710;7.180;2023-05-10T01:31:03;14.60;99.90
13251;DHT22;6692;50.710;7.180;2023-05-10T01:33:01;14.60;99.90
13251;DHT22;6692;50.710;7.180;2023-05-10T01:35:05;14.70;99.90
13251;DHT22;6692;50.710;7.180;2023-05-10T01:37:07;14.60;99.90
13251;DHT22;6692;50.710;7.180;2023-05-10T01:39:13;14.60;99.90
13251;DHT22;6692;50.710;7.180;2023-05-10T01:41:14;14.70;99.90
13251;DHT22;6692;50.710;7.180;2023-05-10T01:43:17;14.70;99.90
13251;DHT22;6692;50.710;7.180;2023-05-10T01:45:20;14.60;99.90
13251;DHT22;6692;50.710;7.180;2023-05-10T01:47:24;14.70;99.90
13251;DHT22;6692;50.710;7.180;2023-05-10T01:49:23;14.60;99.90
13251;DHT22;6692;50.710;7.180;2023-05-10T01:51:23;14.50;99.90
13251;DHT22;6692;50.710;7.180;2023-05-10T01:53:22;14.60;99.90
13251;DHT22;6692;50.710;7.180;2023-05-10T01:55:24;14.50;99.90
13251;DHT22;6692;50.710;7.180;2023-05-10T01:57:25;14.40;99.90
13251;DHT22;6692;50.710;7.180;2023-05-10T01:59:25;14.50;99.90
13251;DHT22;6692;50.710;7.180;2023-05-10T02:01:25;14.50;99.90
13251;DHT22;6692;50.710;7.180;2023-05-10T02:03:26;14.50;99.90
13251;DHT22;6692;50.710;7.180;2023-05-10T02:05:27;14.40;99.90
13251;DHT22;6692;50.710;7.180;2023-05-10T02:07:27;14.40;99.90
13251;DHT22;6692;50.710;7.180;2023-05-10T02:09:28;14.30;99.90
13251;DHT22;6692;50.710;7.180;2023-05-10T02:11:29;14.40;99.90
13251;DHT22;6692;50.710;7.180;2023-05-10T02:13:30;14.30;99.90
13251;DHT22;6692;50.710;7.180;2023-05-10T02:15:30;14.30;99.90
13251;DHT22;6692;50.710;7.180;2023-05-10T02:17:31;14.30;99.90
13251;DHT22;6692;50.710;7.180;2023-05-10T02:19:32;14.30;99.90
13251;DHT22;6692;50.710;7.180;2023-05-10T02:21:33;14.40;99.90
13251;DHT22;6692;50.710;7.180;2023-05-10T02:23:34;14.30;99.90
13251;DHT22;6692;50.710;7.180;2023-05-10T02:25:34;14.40;99.90
13251;DHT22;6692;50.710;7.180;2023-05-10T02:27:35;14.50;99.90
13251;DHT22;6692;50.710;7.180;2023-05-10T02:29:36;14.60;99.90
13251;DHT22;6692;50.710;7.180;2023-05-10T02:31:37;14.60;99.90
13251;DHT22;6692;50.710;7.180;2023-05-10T02:33:38;14.60;99.90
13251;DHT22;6692;50.710;7.180;2023-05-10T02:35:39;14.50;99.90
13251;DHT22;6692;50.710;7.180;2023-05-10T02:37:40;14.50;99.90
13251;DHT22;6692;50.710;7.180;2023-05-10T02:39:40;14.40;99.90
13251;DHT22;6692;50.710;7.180;2023-05-10T02:41:41;14.40;99.90
13251;DHT22;6692;50.710;7.180;2023-05-10T02:43:42;14.30;99.90
13251;DHT22;6692;50.710;7.180;2023-05-10T02:45:42;14.30;99.90
13251;DHT22;6692;50.710;7.180;2023-05-10T02:47:43;14.40;99.90
13251;DHT22;6692;50.710;7.180;2023-05-10T02:49:45;14.40;99.90
13251;DHT22;6692;50.710;7.180;2023-05-10T02:51:47;14.30;99.90
13251;DHT22;6692;50.710;7.180;2023-05-10T02:53:46;14.30;99.90
13251;DHT22;6692;50.710;7.180;2023-05-10T02:55:49;14.40;99.90
13251;DHT22;6692;50.710;7.180;2023-05-10T02:57:50;14.40;99.90
13251;DHT22;6692;50.710;7.180;2023-05-10T02:59:49;14.40;99.90
13251;DHT22;6692;50.710;7.180;2023-05-10T03:01:50;14.30;99.90
13251;DHT22;6692;50.710;7.180;2023-05-10T03:03:51;14.30;99.90
13251;DHT22;6692;50.710;7.180;2023-05-10T03:05:52;14.30;99.90
13251;DHT22;6692;50.710;7.180;2023-05-10T03:07:53;14.30;99.90
13251;DHT22;6692;50.710;7.180;2023-05-10T03:09:54;14.30;99.90
13251;DHT22;6692;50.710;7.180;2023-05-10T03:12:00;14.40;99.90
13251;DHT22;6692;50.710;7.180;2023-05-10T03:14:07;14.40;99.90
13251;DHT22;6692;50.710;7.180;2023-05-10T03:16:08;14.40;99.90
13251;DHT22;6692;50.710;7.180;2023-05-10T03:18:07;14.50;99.90
13251;DHT22;6692;50.710;7.180;2023-05-10T03:20:09;14.50;99.90
13251;DHT22;6692;50.710;7.180;2023-05-10T03:22:10;14.50;99.90
13251;DHT22;6692;50.710;7.180;2023-05-10T03:24:11;14.50;99.90
13251;DHT22;6692;50.710;7.180;2023-05-10T03:26:15;14.50;99.90
13251;DHT22;6692;50.710;7.180;2023-05-10T03:28:14;14.50;99.90
13251;DHT22;6692;50.710;7.180;2023-05-10T03:30:14;14.50;99.90
13251;DHT22;6692;50.710;7.180;2023-05-10T03:32:15;14.40;99.90
13251;DHT22;6692;50.710;7.180;2023-05-10T03:34:16;14.30;99.90
13251;DHT22;6692;50.710;7.180;2023-05-10T03:36:17;14.30;99.90
13251;DHT22;6692;50.710;7.180;2023-05-10T03:38:17;14.30;99.90
13251;DHT22;6692;50.710;7.180;2023-05-10T03:40:18;14.20;99.90
13251;DHT22;6692;50.710;7.180;2023-05-10T03:42:19;14.30;99.90
13251;DHT22;6692;50.710;7.180;2023-05-10T03:44:19;14.30;99.90
13251;DHT22;6692;50.710;7.180;2023-05-10T03:46:20;14.40;99.90
13251;DHT22;6692;50.710;7.180;2023-05-10T03:48:21;14.40;99.90
13251;DHT22;6692;50.710;7.180;2023-05-10T03:50:22;14.40;99.90
13251;DHT22;6692;50.710;7.180;2023-05-10T03:52:22;14.40;99.90
13251;DHT22;6692;50.710;7.180;2023-05-10T03:54:23;14.40;99.90
13251;DHT22;6692;50.710;7.180;2023-05-10T03:56:24;14.40;99.90
13251;DHT22;6692;50.710;7.180;2023-05-10T03:58:24;14.50;99.90
13251;DHT22;6692;50.710;7.180;2023-05-10T04:00:25;14.60;99.90
13251;DHT22;6692;50.710;7.180;2023-05-10T04:02:26;14.50;99.90
13251;DHT22;6692;50.710;7.180;2023-05-10T04:04:27;14.40;99.90
13251;DHT22;6692;50.710;7.180;2023-05-10T04:06:28;14.40;99.90
13251;DHT22;6692;50.710;7.180;2023-05-10T04:08:28;14.40;99.90
13251;DHT22;6692;50.710;7.180;2023-05-10T04:10:29;14.40;99.90
13251;DHT22;6692;50.710;7.180;2023-05-10T04:12:30;14.40;99.90
13251;DHT22;6692;50.710;7.180;2023-05-10T04:14:30;14.30;99.90
13251;DHT22;6692;50.710;7.180;2023-05-10T04:16:32;14.30;99.90
13251;DHT22;6692;50.710;7.180;2023-05-10T04:18:32;14.30;99.90
13251;DHT22;6692;50.710;7.180;2023-05-10T04:20:33;14.30;99.90
13251;DHT22;6692;50.710;7.180;2023-05-10T04:22:34;14.30;99.90
13251;DHT22;6692;50.710;7.180;2023-05-10T04:24:34;14.30;99.90
13251;DHT22;6692;50.710;7.180;2023-05-10T04:26:35;14.30;99.90
13251;DHT22;6692;50.710;7.180;2023-05-10T04:28:36;14.30;99.90
13251;DHT22;6692;50.710;7.180;2023-05-10T04:30:36;14.30;99.90
13251;DHT22;6692;50.710;7.180;2023-05-10T04:32:37;14.40;99.90
13251;DHT22;6692;50.710;7.180;2023-05-10T04:34:38;14.40;99.90
13251;DHT22;6692;50.710;7.180;2023-05-10T04:36:39;14.40;99.90
13251;DHT22;6692;50.710;7.180;2023-05-10T04:38:40;14.40;99.90
13251;DHT22;6692;50.710;7.180;2023-05-10T04:40:40;14.40;99.90
13251;DHT22;6692;50.710;7.180;2023-05-10T04:42:41;14.50;99.90
13251;DHT22;6692;50.710;7.180;2023-05-10T04:44:42;14.50;99.90
13251;DHT22;6692;50.710;7.180;2023-05-10T04:46:42;14.60;99.90
13251;DHT22;6692;50.710;7.180;2023-05-10T04:48:43;14.70;99.90
13251;DHT22;6692;50.710;7.180;2023-05-10T04:50:44;14.70;99.90
13251;DHT22;6692;50.710;7.180;2023-05-10T04:52:45;14.70;99.90
13251;DHT22;6692;50.710;7.180;2023-05-10T04:54:46;14.80;99.90
13251;DHT22;6692;50.710;7.180;2023-05-10T04:56:46;14.80;99.90
13251;DHT22;6692;50.710;7.180;2023-05-10T04:58:47;14.90;99.90
13251;DHT22;6692;50.710;7.180;2023-05-10T05:00:48;14.90;99.90
13251;DHT22;6692;50.710;7.180;2023-05-10T05:02:49;15.00;99.90
13251;DHT22;6692;50.710;7.180;2023-05-10T05:04:50;15.00;99.90
13251;DHT22;6692;50.710;7.180;2023-05-10T05:06:51;15.00;99.90
13251;DHT22;6692;50.710;7.180;2023-05-10T05:08:51;15.10;99.90
13251;DHT22;6692;50.710;7.180;2023-05-10T05:10:52;15.10;99.90
13251;DHT22;6692;50.710;7.180;2023-05-10T05:12:53;15.10;99.90
13251;DHT22;6692;50.710;7.180;2023-05-10T05:14:53;15.00;99.90
13251;DHT22;6692;50.710;7.180;2023-05-10T05:16:54;15.00;99.90
13251;DHT22;6692;50.710;7.180;2023-05-10T05:18:55;15.00;99.90
13251;DHT22;6692;50.710;7.180;2023-05-10T05:20:55;15.00;99.90
13251;DHT22;6692;50.710;7.180;2023-05-10T05:22:56;15.00;99.90
13251;DHT22;6692;50.710;7.180;2023-05-10T05:24:57;15.10;99.90
13251;DHT22;6692;50.710;7.180;2023-05-10T05:26:57;15.10;99.90
13251;DHT22;6692;50.710;7.180;2023-05-10T05:28:59;15.10;99.90
13251;DHT22;6692;50.710;7.180;2023-05-10T05:30:59;15.10;99.90
13251;DHT22;6692;50.710;7.180;2023-05-10T05:33:00;15.20;99.90
13251;DHT22;6692;50.710;7.180;2023-05-10T05:35:01;15.20;99.90
13251;DHT22;6692;50.710;7.180;2023-05-10T05:37:01;15.20;99.90
13251;DHT22;6692;50.710;7.180;2023-05-10T05:39:02;15.20;99.90
13251;DHT22;6692;50.710;7.180;2023-05-10T05:41:04;15.30;99.90
13251;DHT22;6692;50.710;7.180;2023-05-10T05:43:05;15.30;99.90
13251;DHT22;6692;50.710;7.180;2023-05-10T05:45:06;15.30;99.90
13251;DHT22;6692;50.710;7.180;2023-05-10T05:47:08;15.40;99.90
13251;DHT22;6692;50.710;7.180;2023-05-10T05:49:08;15.40;99.90
13251;DHT22;6692;50.710;7.180;2023-05-10T05:51:10;15.50;99.90
13251;DHT22;6692;50.710;7.180;2023-05-10T05:53:10;15.50;99.90
13251;DHT22;6692;50.710;7.180;2023-05-10T05:55:11;15.60;99.90
13251;DHT22;6692;50.710;7.180;2023-05-10T05:57:12;15.60;99.90
13251;DHT22;6692;50.710;7.180;2023-05-10T05:59:12;15.60;99.90
13251;DHT22;6692;50.710;7.180;2023-05-10T06:01:13;15.60;99.90
13251;DHT22;6692;50.710;7.180;2023-05-10T06:03:14;15.50;99.90
13251;DHT22;6692;50.710;7.180;2023-05-10T06:05:14;15.60;99.90
13251;DHT22;6692;50.710;7.180;2023-05-10T06:07:15;15.60;99.90
13251;DHT22;6692;50.710;7.180;2023-05-10T06:09:16;15.70;99.90
13251;DHT22;6692;50.710;7.180;2023-05-10T06:11:16;15.70;99.90
13251;DHT22;6692;50.710;7.180;2023-05-10T06:13:18;15.80;99.90
13251;DHT22;6692;50.710;7.180;2023-05-10T06:15:18;15.80;99.90
13251;DHT22;6692;50.710;7.180;2023-05-10T06:17:20;15.70;99.90
13251;DHT22;6692;50.710;7.180;2023-05-10T06:19:20;15.70;99.90
13251;DHT22;6692;50.710;7.180;2023-05-10T06:21:21;15.80;99.90
13251;DHT22;6692;50.710;7.180;2023-05-10T06:23:22;15.90;99.90
13251;DHT22;6692;50.710;7.180;2023-05-10T06:25:22;16.00;99.90
13251;DHT22;6692;50.710;7.180;2023-05-10T06:27:23;16.20;99.90
13251;DHT22;6692;50.710;7.180;2023-05-10T06:29:24;16.30;99.90
13251;DHT22;6692;50.710;7.180;2023-05-10T06:31:24;16.30;99.90
13251;DHT22;6692;50.710;7.180;2023-05-10T06:33:25;16.30;99.90
13251;DHT22;6692;50.710;7.180;2023-05-10T06:35:26;16.30;99.90
13251;DHT22;6692;50.710;7.180;2023-05-10T06:37:26;16.20;99.90
13251;DHT22;6692;50.710;7.180;2023-05-10T06:39:27;16.20;99.90
13251;DHT22;6692;50.710;7.180;2023-05-10T06:41:28;16.10;99.90
13251;DHT22;6692;50.710;7.180;2023-05-10T06:43:29;16.10;99.90
13251;DHT22;6692;50.710;7.180;2023-05-10T06:45:30;16.10;99.90
13251;DHT22;6692;50.710;7.180;2023-05-10T06:47:30;16.10;99.90
13251;DHT22;6692;50.710;7.180;2023-05-10T06:49:31;16.00;99.90
13251;DHT22;6692;50.710;7.180;2023-05-10T06:51:32;16.00;99.90
13251;DHT22;6692;50.710;7.180;2023-05-10T06:53:32;16.00;99.90
13251;DHT22;6692;50.710;7.180;2023-05-10T06:55:33;15.90;99.90
13251;DHT22;6692;50.710;7.180;2023-05-10T06:57:34;15.80;99.90
13251;DHT22;6692;50.710;7.180;2023-05-10T06:59:34;15.70;99.90
13251;DHT22;6692;50.710;7.180;2023-05-10T07:01:35;15.70;99.90
13251;DHT22;6692;50.710;7.180;2023-05-10T07:03:36;15.60;99.90
13251;DHT22;6692;50.710;7.180;2023-05-10T07:05:36;15.50;99.90
13251;DHT22;6692;50.710;7.180;2023-05-10T07:07:37;15.40;99.90
13251;DHT22;6692;50.710;7.180;2023-05-10T07:09:37;15.30;99.90
13251;DHT22;6692;50.710;7.180;2023-05-10T07:11:38;15.30;99.90
13251;DHT22;6692;50.710;7.180;2023-05-10T07:13:39;15.20;99.90
13251;DHT22;6692;50.710;7.180;2023-05-10T07:15:39;15.20;99.90
13251;DHT22;6692;50.710;7.180;2023-05-10T07:17:40;15.20;99.90
13251;DHT22;6692;50.710;7.180;2023-05-10T07:19:41;15.10;99.90
13251;DHT22;6692;50.710;7.180;2023-05-10T07:21:41;15.00;99.90
13251;DHT22;6692;50.710;7.180;2023-05-10T07:23:42;15.00;99.90
13251;DHT22;6692;50.710;7.180;2023-05-10T07:25:47;14.90;99.90
13251;DHT22;6692;50.710;7.180;2023-05-10T07:27:47;14.90;99.90
13251;DHT22;6692;50.710;7.180;2023-05-10T07:29:49;14.90;99.90
13251;DHT22;6692;50.710;7.180;2023-05-10T07:31:49;14.90;99.90
13251;DHT22;6692;50.710;7.180;2023-05-10T07:33:50;14.80;99.90
13251;DHT22;6692;50.710;7.180;2023-05-10T07:35:51;14.80;99.90
13251;DHT22;6692;50.710;7.180;2023-05-10T07:37:52;14.70;99.90
13251;DHT22;6692;50.710;7.180;2023-05-10T07:39:53;14.70;99.90
13251;DHT22;6692;50.710;7.180;2023-05-10T07:41:55;14.80;99.90
13251;DHT22;6692;50.710;7.180;2023-05-10T07:43:55;14.70;99.90
13251;DHT22;6692;50.710;7.180;2023-05-10T07:45:56;14.80;99.90
13251;DHT22;6692;50.710;7.180;2023-05-10T07:47:57;14.80;99.90
13251;DHT22;6692;50.710;7.180;2023-05-10T07:49:57;14.90;99.90
13251;DHT22;6692;50.710;7.180;2023-05-10T07:51:58;15.00;99.90
13251;DHT22;6692;50.710;7.180;2023-05-10T07:53:59;15.10;99.90
13251;DHT22;6692;50.710;7.180;2023-05-10T07:56:19;15.20;99.90
13251;DHT22;6692;50.710;7.180;2023-05-10T07:58:01;15.20;99.90
13251;DHT22;6692;50.710;7.180;2023-05-10T08:00:02;15.30;99.90
13251;DHT22;6692;50.710;7.180;2023-05-10T08:02:03;15.40;99.90
13251;DHT22;6692;50.710;7.180;2023-05-10T08:04:03;15.40;99.90
13251;DHT22;6692;50.710;7.180;2023-05-10T08:06:05;15.50;99.90
13251;DHT22;6692;50.710;7.180;2023-05-10T08:08:06;15.60;99.90
13251;DHT22;6692;50.710;7.180;2023-05-10T08:10:08;15.60;99.90
13251;DHT22;6692;50.710;7.180;2023-05-10T08:12:09;15.80;99.90
13251;DHT22;6692;50.710;7.180;2023-05-10T08:14:10;15.80;99.90
13251;DHT22;6692;50.710;7.180;2023-05-10T08:16:11;15.80;99.90
13251;DHT22;6692;50.710;7.180;2023-05-10T08:18:11;15.90;99.90
13251;DHT22;6692;50.710;7.180;2023-05-10T08:20:12;16.00;99.90
13251;DHT22;6692;50.710;7.180;2023-05-10T08:22:13;16.00;99.90
13251;DHT22;6692;50.710;7.180;2023-05-10T08:24:13;16.20;99.90
13251;DHT22;6692;50.710;7.180;2023-05-10T08:26:14;16.30;99.90
13251;DHT22;6692;50.710;7.180;2023-05-10T08:28:15;16.40;99.90
13251;DHT22;6692;50.710;7.180;2023-05-10T08:30:15;16.60;99.90
13251;DHT22;6692;50.710;7.180;2023-05-10T08:32:17;16.80;99.90
13251;DHT22;6692;50.710;7.180;2023-05-10T08:34:17;16.70;99.90
13251;DHT22;6692;50.710;7.180;2023-05-10T08:36:18;16.80;99.90
13251;DHT22;6692;50.710;7.180;2023-05-10T08:38:19;16.80;99.90
13251;DHT22;6692;50.710;7.180;2023-05-10T08:40:19;16.80;99.90
13251;DHT22;6692;50.710;7.180;2023-05-10T08:42:21;16.70;99.90
13251;DHT22;6692;50.710;7.180;2023-05-10T08:44:22;16.70;99.90
13251;DHT22;6692;50.710;7.180;2023-05-10T08:46:23;16.60;99.90
13251;DHT22;6692;50.710;7.180;2023-05-10T08:48:24;16.60;99.90
13251;DHT22;6692;50.710;7.180;2023-05-10T08:50:25;16.60;99.90
13251;DHT22;6692;50.710;7.180;2023-05-10T08:52:25;16.60;99.90
13251;DHT22;6692;50.710;7.180;2023-05-10T08:54:26;16.60;99.90
13251;DHT22;6692;50.710;7.180;2023-05-10T08:56:27;16.50;99.90
13251;DHT22;6692;50.710;7.180;2023-05-10T08:58:27;16.40;99.90
13251;DHT22;6692;50.710;7.180;2023-05-10T09:00:28;16.30;99.90
13251;DHT22;6692;50.710;7.180;2023-05-10T09:02:29;16.20;99.90
13251;DHT22;6692;50.710;7.180;2023-05-10T09:04:29;16.20;99.90
13251;DHT22;6692;50.710;7.180;2023-05-10T09:06:30;16.20;99.90
13251;DHT22;6692;50.710;7.180;2023-05-10T09:08:31;16.10;99.90
13251;DHT22;6692;50.710;7.180;2023-05-10T09:10:32;16.00;99.90
13251;DHT22;6692;50.710;7.180;2023-05-10T09:12:33;15.90;99.90
13251;DHT22;6692;50.710;7.180;2023-05-10T09:14:33;15.70;99.90
13251;DHT22;6692;50.710;7.180;2023-05-10T09:16:34;15.50;99.90
13251;DHT22;6692;50.710;7.180;2023-05-10T09:18:35;15.30;99.90
13251;DHT22;6692;50.710;7.180;2023-05-10T09:20:36;15.10;99.90
13251;DHT22;6692;50.710;7.180;2023-05-10T09:22:37;15.00;99.90
13251;DHT22;6692;50.710;7.180;2023-05-10T09:24:37;14.80;99.90
13251;DHT22;6692;50.710;7.180;2023-05-10T09:26:45;14.70;99.90
13251;DHT22;6692;50.710;7.180;2023-05-10T09:28:55;14.70;99.90
13251;DHT22;6692;50.710;7.180;2023-05-10T09:30:56;14.60;99.90
13251;DHT22;6692;50.710;7.180;2023-05-10T09:32:57;14.60;99.90
13251;DHT22;6692;50.710;7.180;2023-05-10T09:34:57;14.50;99.90
13251;DHT22;6692;50.710;7.180;2023-05-10T09:36:59;14.50;99.90
13251;DHT22;6692;50.710;7.180;2023-05-10T09:38:59;14.60;99.90
13251;DHT22;6692;50.710;7.180;2023-05-10T09:40:59;14.70;99.90
13251;DHT22;6692;50.710;7.180;2023-05-10T09:43:01;14.90;99.90
13251;DHT22;6692;50.710;7.180;2023-05-10T09:45:02;15.00;99.90
13251;DHT22;6692;50.710;7.180;2023-05-10T09:47:02;15.20;99.90
13251;DHT22;6692;50.710;7.180;2023-05-10T09:49:02;15.30;99.90
13251;DHT22;6692;50.710;7.180;2023-05-10T09:51:03;15.40;99.90
13251;DHT22;6692;50.710;7.180;2023-05-10T09:53:03;15.50;99.90
13251;DHT22;6692;50.710;7.180;2023-05-10T09:55:04;15.70;99.90
13251;DHT22;6692;50.710;7.180;2023-05-10T09:57:05;15.80;99.90
13251;DHT22;6692;50.710;7.180;2023-05-10T09:59:06;15.90;99.90
13251;DHT22;6692;50.710;7.180;2023-05-10T10:01:10;15.90;99.90
13251;DHT22;6692;50.710;7.180;2023-05-10T10:03:13;16.00;99.90
13251;DHT22;6692;50.710;7.180;2023-05-10T10:05:12;16.00;99.90
13251;DHT22;6692;50.710;7.180;2023-05-10T10:07:13;16.00;99.90
13251;DHT22;6692;50.710;7.180;2023-05-10T10:09:14;16.10;99.90
13251;DHT22;6692;50.710;7.180;2023-05-10T10:11:15;16.30;99.90
13251;DHT22;6692;50.710;7.180;2023-05-10T10:13:16;16.30;99.90
13251;DHT22;6692;50.710;7.180;2023-05-10T10:15:17;16.50;99.90
13251;DHT22;6692;50.710;7.180;2023-05-10T10:17:18;16.60;99.90
13251;DHT22;6692;50.710;7.180;2023-05-10T10:19:18;16.70;99.90
13251;DHT22;6692;50.710;7.180;2023-05-10T10:21:19;16.80;99.90
13251;DHT22;6692;50.710;7.180;2023-05-10T10:23:19;17.00;99.90
13251;DHT22;6692;50.710;7.180;2023-05-10T10:25:20;17.00;99.90
13251;DHT22;6692;50.710;7.180;2023-05-10T10:30:02;17.00;99.90
13251;DHT22;6692;50.710;7.180;2023-05-10T10:32:08;16.90;99.90
13251;DHT22;6692;50.710;7.180;2023-05-10T10:34:06;16.80;99.90
13251;DHT22;6692;50.710;7.180;2023-05-10T10:36:09;16.60;99.90
13251;DHT22;6692;50.710;7.180;2023-05-10T10:38:09;16.60;99.90
13251;DHT22;6692;50.710;7.180;2023-05-10T10:42:43;16.40;99.90
13251;DHT22;6692;50.710;7.180;2023-05-10T10:44:34;16.30;99.90
13251;DHT22;6692;50.710;7.180;2023-05-10T10:46:35;16.30;99.90
13251;DHT22;6692;50.710;7.180;2023-05-10T10:48:36;16.20;99.90
13251;DHT22;6692;50.710;7.180;2023-05-10T10:50:44;16.10;99.90
13251;DHT22;6692;50.710;7.180;2023-05-10T10:52:45;15.90;99.90
13251;DHT22;6692;50.710;7.180;2023-05-10T10:54:49;15.90;99.90
13251;DHT22;6692;50.710;7.180;2023-05-10T10:56:51;15.90;99.90
13251;DHT22;6692;50.710;7.180;2023-05-10T10:58:49;15.80;99.90
13251;DHT22;6692;50.710;7.180;2023-05-10T11:00:49;15.80;99.90
13251;DHT22;6692;50.710;7.180;2023-05-10T11:02:53;15.80;99.90
13251;DHT22;6692;50.710;7.180;2023-05-10T11:04:53;15.80;99.90
13251;DHT22;6692;50.710;7.180;2023-05-10T11:07:11;15.90;99.90
13251;DHT22;6692;50.710;7.180;2023-05-10T11:08:55;16.00;99.90
13251;DHT22;6692;50.710;7.180;2023-05-10T11:11:02;16.00;99.90
13251;DHT22;6692;50.710;7.180;2023-05-10T11:13:05;15.90;99.90
13251;DHT22;6692;50.710;7.180;2023-05-10T11:15:08;15.80;99.90
13251;DHT22;6692;50.710;7.180;2023-05-10T11:19:20;15.70;99.90
13251;DHT22;6692;50.710;7.180;2023-05-10T11:21:21;15.70;99.90
13251;DHT22;6692;50.710;7.180;2023-05-10T11:23:21;15.80;99.90
13251;DHT22;6692;50.710;7.180;2023-05-10T11:25:26;15.90;99.90
13251;DHT22;6692;50.710;7.180;2023-05-10T11:27:26;15.90;99.90
13251;DHT22;6692;50.710;7.180;2023-05-10T11:29:27;16.00;99.90
13251;DHT22;6692;50.710;7.180;2023-05-10T11:31:28;15.90;99.90
13251;DHT22;6692;50.710;7.180;2023-05-10T11:33:29;16.00;99.90
13251;DHT22;6692;50.710;7.180;2023-05-10T11:35:31;16.00;99.90
13251;DHT22;6692;50.710;7.180;2023-05-10T11:37:32;16.10;99.90
13251;DHT22;6692;50.710;7.180;2023-05-10T11:39:33;16.10;99.90
13251;DHT22;6692;50.710;7.180;2023-05-10T11:41:33;16.30;99.90
13251;DHT22;6692;50.710;7.180;2023-05-10T11:43:35;16.50;99.90
13251;DHT22;6692;50.710;7.180;2023-05-10T11:45:35;16.40;99.90
13251;DHT22;6692;50.710;7.180;2023-05-10T11:47:36;16.50;99.90
13251;DHT22;6692;50.710;7.180;2023-05-10T11:49:37;16.60;99.90
13251;DHT22;6692;50.710;7.180;2023-05-10T11:51:37;16.70;99.90
13251;DHT22;6692;50.710;7.180;2023-05-10T11:53:38;16.80;99.90
13251;DHT22;6692;50.710;7.180;2023-05-10T11:55:39;16.90;99.90
13251;DHT22;6692;50.710;7.180;2023-05-10T11:57:39;16.90;99.90
13251;DHT22;6692;50.710;7.180;2023-05-10T11:59:40;16.90;99.90
13251;DHT22;6692;50.710;7.180;2023-05-10T12:01:41;16.90;99.90
13251;DHT22;6692;50.710;7.180;2023-05-10T12:03:41;17.00;99.90
13251;DHT22;6692;50.710;7.180;2023-05-10T12:05:42;17.00;99.90
13251;DHT22;6692;50.710;7.180;2023-05-10T12:07:43;17.10;99.90
13251;DHT22;6692;50.710;7.180;2023-05-10T12:09:44;17.20;99.90
13251;DHT22;6692;50.710;7.180;2023-05-10T12:11:44;17.20;99.90
13251;DHT22;6692;50.710;7.180;2023-05-10T12:13:45;17.10;99.90
13251;DHT22;6692;50.710;7.180;2023-05-10T12:15:46;16.70;99.90
13251;DHT22;6692;50.710;7.180;2023-05-10T12:17:47;16.70;99.90
13251;DHT22;6692;50.710;7.180;2023-05-10T12:19:48;16.50;99.90
13251;DHT22;6692;50.710;7.180;2023-05-10T12:21:48;16.30;99.90
13251;DHT22;6692;50.710;7.180;2023-05-10T12:23:50;16.10;99.90
13251;DHT22;6692;50.710;7.180;2023-05-10T12:25:50;15.80;99.90
13251;DHT22;6692;50.710;7.180;2023-05-10T12:27:51;15.70;99.90
13251;DHT22;6692;50.710;7.180;2023-05-10T12:29:52;15.50;99.90
13251;DHT22;6692;50.710;7.180;2023-05-10T12:31:54;15.40;99.90
13251;DHT22;6692;50.710;7.180;2023-05-10T12:33:54;15.40;99.90
13251;DHT22;6692;50.710;7.180;2023-05-10T12:35:54;15.40;99.90
13251;DHT22;6692;50.710;7.180;2023-05-10T12:37:55;15.50;99.90
13251;DHT22;6692;50.710;7.180;2023-05-10T12:39:56;15.50;99.90
13251;DHT22;6692;50.710;7.180;2023-05-10T12:41:56;15.60;99.90
13251;DHT22;6692;50.710;7.180;2023-05-10T12:43:57;15.60;99.90
13251;DHT22;6692;50.710;7.180;2023-05-10T12:46:03;15.70;99.90
13251;DHT22;6692;50.710;7.180;2023-05-10T12:47:59;15.70;99.90
13251;DHT22;6692;50.710;7.180;2023-05-10T12:50:00;15.70;99.90
13251;DHT22;6692;50.710;7.180;2023-05-10T12:52:01;15.80;99.90
13251;DHT22;6692;50.710;7.180;2023-05-10T12:54:02;15.90;99.90
13251;DHT22;6692;50.710;7.180;2023-05-10T12:56:02;16.10;99.90
13251;DHT22;6692;50.710;7.180;2023-05-10T12:58:03;16.20;99.90
13251;DHT22;6692;50.710;7.180;2023-05-10T13:00:04;16.30;99.90
13251;DHT22;6692;50.710;7.180;2023-05-10T13:02:05;16.30;99.90
13251;DHT22;6692;50.710;7.180;2023-05-10T13:04:06;16.40;99.90